Time;durP1;ratioP1;P1;durP2;ratioP2;P2;SDS_P1;SDS_P2;PMS_P1;PMS_P2;Temp;Humidity;BMP_temperature;BMP_pressure;BME280_temperature;BME280_humidity;BME280_pressure;Samples;Min_cycle;Max_cycle;Signal;HPM_P1;HPM_P2
2023/05/13 00:03:48;;;;;;;;;;;8.00;99.90;;;;;;5029680;28;20058;-89
2023/05/13 00:06:13;;;;;;;;;;;8.00;99.90;;;;;;5027086;28;20043;-90
2023/05/13 00:08:39;;;;;;;;;;;8.00;99.90;;;;;;5017170;28;20037;-89
2023/05/13 00:11:04;;;;;;;;;;;8.10;99.90;;;;;;5035832;28;20477;-90
2023/05/13 00:13:30;;;;;;;;;;;8.00;99.90;;;;;;5018227;28;20048;-91
2023/05/13 00:15:56;;;;;;;;;;;8.10;99.90;;;;;;5011226;28;21022;-89
2023/05/13 00:18:21;;;;;;;;;;;8.00;99.90;;;;;;5033161;28;20029;-90
2023/05/13 00:20:47;;;;;;;;;;;8.00;99.90;;;;;;5029886;28;20404;-90
2023/05/13 00:23:13;;;;;;;;;;;7.90;99.90;;;;;;5023546;28;20006;-89
2023/05/13 00:25:40;;;;;;;;;;;7.90;99.90;;;;;;5024194;28;20034;-89
2023/05/13 00:28:05;;;;;;;;;;;7.90;99.90;;;;;;5026939;28;20143;-88
2023/05/13 00:30:31;;;;;;;;;;;7.80;99.90;;;;;;5044260;28;20052;-88
2023/05/13 00:32:57;;;;;;;;;;;7.80;99.90;;;;;;5024936;28;19996;-89
2023/05/13 00:35:35;;;;;;;;;;;7.80;99.90;;;;;;5036036;28;20370;-90
2023/05/13 00:38:01;;;;;;;;;;;7.70;99.90;;;;;;5032383;28;20546;-89
2023/05/13 00:40:26;;;;;;;;;;;7.60;99.90;;;;;;5032505;28;20033;-89
2023/05/13 00:42:53;;;;;;;;;;;7.50;99.90;;;;;;5044900;28;20124;-89
2023/05/13 00:45:18;;;;;;;;;;;7.50;99.90;;;;;;5030109;28;19948;-90
2023/05/13 00:47:44;;;;;;;;;;;7.40;99.90;;;;;;5031774;28;19944;-89
2023/05/13 00:50:10;;;;;;;;;;;7.40;99.90;;;;;;5022879;28;19917;-90
2023/05/13 00:52:39;;;;;;;;;;;7.40;99.90;;;;;;5032557;28;20268;-90
2023/05/13 00:55:06;;;;;;;;;;;7.40;99.90;;;;;;5039631;28;24106;-89
2023/05/13 00:57:31;;;;;;;;;;;7.40;99.90;;;;;;5030404;28;20319;-89
2023/05/13 00:59:57;;;;;;;;;;;7.30;99.90;;;;;;5031628;28;19959;-89
2023/05/13 01:02:41;;;;;;;;;;;7.30;99.90;;;;;;5050360;28;19913;-89
2023/05/13 01:08:38;;;;;;;;;;;7.20;99.90;;;;;;5017485;28;20365;-90
2023/05/13 01:11:26;;;;;;;;;;;7.20;99.90;;;;;;5026996;28;25087;-89
2023/05/13 01:14:24;;;;;;;;;;;7.10;99.90;;;;;;5009672;28;19913;-90
2023/05/13 01:17:08;;;;;;;;;;;7.10;99.90;;;;;;5018911;28;19909;-90
2023/05/13 01:19:38;;;;;;;;;;;7.10;99.90;;;;;;5030693;28;19909;-90
2023/05/13 01:22:05;;;;;;;;;;;7.10;99.90;;;;;;5017529;28;20464;-89
2023/05/13 01:24:31;;;;;;;;;;;7.10;99.90;;;;;;5023528;28;19925;-89
2023/05/13 01:26:58;;;;;;;;;;;7.00;99.90;;;;;;5033750;28;19915;-89
2023/05/13 01:29:23;;;;;;;;;;;6.90;99.90;;;;;;5033683;28;19909;-89
2023/05/13 01:31:50;;;;;;;;;;;6.90;99.90;;;;;;5028871;28;19960;-89
2023/05/13 01:34:17;;;;;;;;;;;6.80;99.90;;;;;;5028750;28;20265;-89
2023/05/13 01:36:47;;;;;;;;;;;6.90;99.90;;;;;;5038686;28;19912;-89
2023/05/13 01:39:14;;;;;;;;;;;6.80;99.90;;;;;;5019243;28;20352;-90
2023/05/13 01:41:40;;;;;;;;;;;6.90;99.90;;;;;;5023015;28;20611;-89
2023/05/13 01:44:24;;;;;;;;;;;6.80;99.90;;;;;;5029831;28;24059;-88
2023/05/13 01:46:50;;;;;;;;;;;6.80;99.90;;;;;;5029164;28;19996;-89
2023/05/13 01:49:16;;;;;;;;;;;6.90;99.90;;;;;;5032054;28;19909;-89
2023/05/13 01:51:43;;;;;;;;;;;6.90;99.90;;;;;;5032340;28;19910;-89
2023/05/13 01:54:10;;;;;;;;;;;6.90;99.90;;;;;;5023000;28;19909;-89
2023/05/13 01:56:39;;;;;;;;;;;6.90;99.90;;;;;;5019658;28;19909;-89
2023/05/13 01:59:05;;;;;;;;;;;6.90;99.90;;;;;;5033066;28;20356;-89
2023/05/13 02:01:31;;;;;;;;;;;6.80;99.90;;;;;;5030424;28;24062;-89
2023/05/13 02:03:58;;;;;;;;;;;6.90;99.90;;;;;;5012860;28;24075;-89
2023/05/13 02:06:24;;;;;;;;;;;6.80;99.90;;;;;;5004642;28;19959;-89
2023/05/13 02:08:49;;;;;;;;;;;6.80;99.90;;;;;;5044899;28;20369;-89
2023/05/13 02:14:41;;;;;;;;;;;6.60;99.90;;;;;;5037902;28;19920;-90
2023/05/13 02:17:07;;;;;;;;;;;6.60;99.90;;;;;;5026981;28;19935;-89
2023/05/13 02:19:33;;;;;;;;;;;6.60;99.90;;;;;;5013997;28;19916;-90
2023/05/13 02:21:58;;;;;;;;;;;6.50;99.90;;;;;;5021157;28;20047;-89
2023/05/13 02:24:24;;;;;;;;;;;6.60;99.90;;;;;;5029835;28;19916;-90
2023/05/13 02:26:50;;;;;;;;;;;6.50;99.90;;;;;;5030003;28;19916;-90
2023/05/13 02:29:16;;;;;;;21.20;13.20;;;6.50;99.90;;;;;;5033345;28;19909;-90
2023/05/13 02:31:42;;;;;;;17.13;12.35;;;6.40;99.90;;;;;;5038193;28;20029;-90
2023/05/13 02:34:07;;;;;;;21.40;13.20;;;6.40;99.90;;;;;;5015791;28;20033;-90
2023/05/13 02:36:33;;;;;;;;;;;6.30;99.90;;;;;;5023744;28;20003;-90
2023/05/13 02:38:59;;;;;;;;;;;6.30;99.90;;;;;;5044616;28;19897;-89
2023/05/13 02:41:25;;;;;;;;;;;6.30;99.90;;;;;;5042553;28;19920;-89
2023/05/13 02:43:51;;;;;;;;;;;6.20;99.90;;;;;;5023686;28;20372;-89
2023/05/13 02:46:16;;;;;;;;;;;6.20;99.90;;;;;;5041342;28;19913;-90
2023/05/13 02:48:43;;;;;;;;;;;6.20;99.90;;;;;;5031863;28;19909;-90
2023/05/13 02:51:09;;;;;;;;;;;6.10;99.90;;;;;;5027944;28;19916;-89
2023/05/13 02:57:03;;;;;;;;;;;6.10;99.90;;;;;;5021917;28;19940;-89
2023/05/13 02:59:29;;;;;;;;;;;6.10;99.90;;;;;;5024446;28;20024;-89
2023/05/13 03:01:55;;;;;;;;;;;6.30;99.90;;;;;;5018448;28;19913;-89
2023/05/13 03:04:21;;;;;;;;;;;6.20;99.90;;;;;;5000235;28;19913;-89
2023/05/13 03:06:47;;;;;;;;;;;6.10;99.90;;;;;;5039102;28;19999;-90
2023/05/13 03:09:12;;;;;;;;;;;6.10;99.90;;;;;;5033158;28;19911;-89
2023/05/13 03:11:38;;;;;;;;;;;6.10;99.90;;;;;;5032011;28;19909;-89
2023/05/13 03:14:04;;;;;;;;;;;5.90;99.90;;;;;;5021874;28;19916;-90
2023/05/13 03:16:30;;;;;;;;;;;5.90;99.90;;;;;;5030535;28;19909;-90
2023/05/13 03:18:56;;;;;;;;;;;6.10;99.90;;;;;;5050210;28;19912;-90
2023/05/13 03:21:21;;;;;;;;;;;6.10;99.90;;;;;;5033679;28;19913;-90
2023/05/13 03:23:47;;;;;;;;;;;6.10;99.90;;;;;;5030984;28;19909;-89
2023/05/13 03:29:22;;;;;;;;;;;6.20;99.90;;;;;;5033167;28;19964;-89
2023/05/13 03:31:51;;;;;;;;;;;6.30;99.90;;;;;;5039201;28;19957;-89
2023/05/13 03:34:17;;;;;;;;;;;6.30;99.90;;;;;;5019791;28;19916;-89
2023/05/13 03:36:42;;;;;;;;;;;6.30;99.90;;;;;;5049808;28;20623;-89
2023/05/13 03:39:09;;;;;;;;;;;6.30;99.90;;;;;;5032909;28;19915;-90
2023/05/13 03:41:36;;;;;;;;;;;6.40;99.90;;;;;;5024688;28;19913;-89
2023/05/13 03:44:02;;;;;;;;;;;6.40;99.90;;;;;;5032424;28;19924;-92
2023/05/13 03:46:28;;;;;;;;;;;6.50;99.90;;;;;;5019765;28;20277;-92
2023/05/13 03:48:54;;;;;;;;;;;6.50;99.90;;;;;;5013947;28;19917;-92
2023/05/13 03:51:21;;;;;;;;;;;6.50;99.90;;;;;;5017951;28;19913;-92
2023/05/13 03:53:47;;;;;;;;;;;6.60;99.90;;;;;;5024672;28;20391;-93
2023/05/13 03:56:13;;;;;;;;;;;6.60;99.90;;;;;;5034854;28;19909;-93
2023/05/13 03:58:39;;;;;;;;;;;6.60;99.90;;;;;;5036721;28;19909;-92
2023/05/13 04:01:06;;;;;;;;;;;6.70;99.90;;;;;;5026806;28;19964;-92
2023/05/13 04:04:05;;;;;;;;;;;6.70;99.90;;;;;;5035144;28;19975;-92
2023/05/13 04:06:31;;;;;;;;;;;6.80;99.90;;;;;;5020723;28;20012;-92
2023/05/13 04:09:03;;;;;;;;;;;6.80;99.90;;;;;;5031104;28;19944;-92
2023/05/13 04:11:30;;;;;;;;;;;6.80;99.90;;;;;;5017226;28;20368;-92
2023/05/13 04:13:56;;;;;;;;;;;7.00;99.90;;;;;;5032308;28;19921;-92
2023/05/13 04:16:21;;;;;;;;;;;7.00;99.90;;;;;;5020966;28;20401;-92
2023/05/13 04:18:47;;;;;;;;;;;7.10;99.90;;;;;;5036557;28;19913;-92
2023/05/13 04:21:12;;;;;;;;;;;7.10;99.90;;;;;;5020255;28;19916;-92
2023/05/13 04:23:38;;;;;;;;;;;7.20;99.90;;;;;;5029596;28;19920;-93
2023/05/13 04:26:04;;;;;;;;;;;7.20;99.90;;;;;;5027921;28;19995;-92
2023/05/13 04:28:30;;;;;;;;;;;7.30;99.90;;;;;;5040516;28;19995;-92
2023/05/13 04:30:57;;;;;;;;;;;7.30;99.90;;;;;;5028512;28;19909;-93
2023/05/13 04:33:23;;;;;;;;;;;7.40;99.90;;;;;;5030767;28;19917;-92
2023/05/13 04:35:49;;;;;;;;;;;7.50;99.90;;;;;;5026245;28;20284;-93
2023/05/13 04:38:14;;;;;;;;;;;7.50;99.90;;;;;;5020749;28;19909;-92
2023/05/13 04:40:42;;;;;;;;;;;7.60;99.90;;;;;;5026065;28;20565;-93
2023/05/13 04:43:10;;;;;;;;;;;7.70;99.90;;;;;;5037457;28;19979;-93
2023/05/13 04:45:51;;;;;;;;;;;7.80;99.90;;;;;;5019838;28;19929;-92
2023/05/13 04:48:16;;;;;;;;;;;7.80;99.90;;;;;;5025694;28;19919;-92
2023/05/13 04:50:45;;;;;;;;;;;7.90;99.90;;;;;;5038039;28;20352;-93
2023/05/13 04:53:11;;;;;;;;;;;7.90;99.90;;;;;;5025355;28;20004;-92
2023/05/13 04:55:37;;;;;;;;;;;8.00;99.90;;;;;;5035674;28;19975;-92
2023/05/13 04:58:04;;;;;;;;;;;8.00;99.90;;;;;;5025175;28;19910;-92
2023/05/13 05:00:33;;;;;;;;;;;8.10;99.90;;;;;;5035185;28;19912;-92
2023/05/13 05:03:11;;;;;;;;;;;8.20;99.90;;;;;;5033882;28;19920;-92
2023/05/13 05:05:37;;;;;;;;;;;8.20;99.90;;;;;;5023916;28;19931;-93
2023/05/13 05:08:04;;;;;;;;;;;8.30;99.90;;;;;;5017056;28;19973;-92
2023/05/13 05:10:29;;;;;;;;;;;8.30;99.90;;;;;;5035765;28;19932;-93
2023/05/13 05:12:58;;;;;;;;;;;8.40;99.90;;;;;;5023326;28;19975;-92
2023/05/13 05:15:24;;;;;;;;;;;8.50;99.90;;;;;;5029515;28;19914;-92
2023/05/13 05:17:53;;;;;;;;;;;8.50;99.90;;;;;;5024571;28;19909;-93
2023/05/13 05:20:19;;;;;;;;;;;8.50;99.90;;;;;;5041812;28;20257;-92
2023/05/13 05:22:49;;;;;;;;;;;8.50;99.90;;;;;;5036495;28;19909;-92
2023/05/13 05:25:15;;;;;;;;;;;8.40;99.90;;;;;;5031497;28;19910;-92
2023/05/13 05:27:41;;;;;;;;;;;8.40;99.90;;;;;;5036061;28;19995;-92
2023/05/13 05:30:07;;;;;;;;;;;8.40;99.90;;;;;;5016351;28;19910;-92
2023/05/13 05:32:35;;;;;;;;;;;8.40;99.90;;;;;;5027954;28;20403;-92
2023/05/13 05:35:02;;;;;;;;;;;8.50;99.90;;;;;;5031319;28;20420;-93
2023/05/13 05:37:30;;;;;;;;;;;8.50;99.90;;;;;;5018741;28;19909;-92
2023/05/13 05:39:56;;;;;;;;;;;8.50;99.90;;;;;;5042616;28;20399;-92
2023/05/13 05:42:21;;;;;;;;;;;8.60;99.90;;;;;;5035863;28;19909;-92
2023/05/13 05:44:47;;;;;;;;;;;8.70;99.90;;;;;;5028822;28;20567;-93
2023/05/13 05:47:13;;;;;;;;;;;8.70;99.90;;;;;;5030935;28;19963;-91
2023/05/13 05:49:39;;;;;;;;;;;8.80;99.90;;;;;;5040433;28;19989;-92
2023/05/13 05:52:05;;;;;;;;;;;8.90;99.90;;;;;;5016598;28;19917;-92
2023/05/13 05:54:31;;;;;;;;;;;9.00;99.90;;;;;;5041245;28;20012;-92
2023/05/13 05:56:57;;;;;;;;;;;9.10;99.90;;;;;;5049706;28;19952;-92
2023/05/13 05:59:23;;;;;;;;;;;9.20;99.90;;;;;;5019103;28;20446;-91
2023/05/13 06:01:50;;;;;;;;;;;9.30;99.90;;;;;;5011656;28;19909;-92
2023/05/13 06:04:16;;;;;;;;;;;9.50;99.90;;;;;;5034689;28;20249;-92
2023/05/13 06:06:42;;;;;;;;;;;9.70;99.90;;;;;;5037221;28;19932;-91
2023/05/13 06:09:08;;;;;;;;;;;9.80;99.90;;;;;;5046238;28;19921;-92
2023/05/13 06:11:33;;;;;;;;;;;10.00;99.90;;;;;;5019782;28;19909;-91
2023/05/13 06:13:59;;;;;;;;;;;10.00;99.90;;;;;;5027761;28;19948;-92
2023/05/13 06:16:26;;;;;;;;;;;10.00;99.90;;;;;;5023727;28;20012;-91
2023/05/13 06:18:51;;;;;;;;;;;10.00;99.90;;;;;;5028971;28;19941;-92
2023/05/13 06:21:17;;;;;;;;;;;10.00;99.90;;;;;;5023019;28;19910;-93
2023/05/13 06:23:46;;;;;;;;;;;10.10;99.90;;;;;;5047069;28;19909;-91
2023/05/13 06:26:17;;;;;;;;;;;10.10;99.90;;;;;;5053314;28;19940;-91
2023/05/13 06:28:43;;;;;;;;;;;10.10;99.90;;;;;;5056848;28;19969;-92
2023/05/13 06:31:09;;;;;;;;;;;10.20;99.90;;;;;;5047539;28;19909;-92
2023/05/13 06:33:36;;;;;;;;;;;10.40;99.90;;;;;;5039781;28;20580;-91
2023/05/13 06:36:02;;;;;;;;;;;10.50;99.90;;;;;;5034305;28;19918;-92
2023/05/13 06:38:28;;;;;;;;;;;10.60;99.90;;;;;;5034583;28;19940;-92
2023/05/13 06:40:56;;;;;;;;;;;10.90;99.90;;;;;;5034053;28;19920;-92
2023/05/13 06:43:28;;;;;;;;;;;11.10;99.90;;;;;;5031921;28;19909;-92
2023/05/13 06:45:58;;;;;;;;;;;11.40;99.90;;;;;;5014562;28;19913;-90
2023/05/13 06:48:25;;;;;;;;;;;11.70;99.90;;;;;;5027264;28;20544;-90
2023/05/13 06:50:51;;;;;;;;;;;11.90;99.90;;;;;;5023939;28;19963;-92
2023/05/13 06:53:17;;;;;;;;;;;11.90;99.90;;;;;;5034316;28;19912;-91
2023/05/13 06:55:43;;;;;;;;;;;12.40;99.90;;;;;;5042634;28;19972;-92
2023/05/13 06:58:09;;;;;;;;;;;12.80;99.90;;;;;;5023390;28;19909;-92
2023/05/13 07:00:38;;;;;;;;;;;13.10;99.90;;;;;;5040224;28;24160;-91
2023/05/13 07:03:05;;;;;;;;;;;13.40;99.90;;;;;;5032523;28;19917;-91
2023/05/13 07:05:34;;;;;;;;;;;13.40;99.90;;;;;;5041174;28;19909;-92
2023/05/13 07:08:05;;;;;;;;;;;13.30;99.90;;;;;;5025750;28;19910;-92
2023/05/13 07:10:31;;;;;;;;;;;13.30;99.90;;;;;;5030449;28;20353;-92
2023/05/13 07:12:57;;;;;;;;;;;13.10;99.90;;;;;;5022627;28;20444;-92
2023/05/13 07:15:23;;;;;;;;;;;13.00;99.90;;;;;;5032852;28;20025;-91
2023/05/13 07:17:49;;;;;;;;;;;12.80;99.90;;;;;;5027214;28;20080;-89
2023/05/13 07:20:15;;;;;;;;;;;12.60;99.90;;;;;;5033217;28;20284;-90
2023/05/13 07:22:40;;;;;;;;;;;12.50;99.90;;;;;;5031209;28;20069;-92
2023/05/13 07:25:06;;;;;;;;;;;12.50;99.90;;;;;;5033626;28;20047;-91
2023/05/13 07:27:32;;;;;;;;;;;12.60;99.90;;;;;;5028217;28;20089;-92
2023/05/13 07:30:00;;;;;;;;;;;12.80;99.90;;;;;;5028937;28;20041;-89
2023/05/13 07:32:27;;;;;;;;;;;12.90;99.90;;;;;;5014051;28;20054;-91
2023/05/13 07:34:53;;;;;;;;;;;13.00;99.90;;;;;;5020246;28;20607;-91
2023/05/13 07:37:19;;;;;;;;;;;12.80;99.90;;;;;;5031903;28;19910;-92
2023/05/13 07:39:44;;;;;;;;;;;13.00;99.90;;;;;;5047970;28;20352;-89
2023/05/13 07:42:10;;;;;;;;;;;13.20;99.90;;;;;;5042240;28;20394;-90
2023/05/13 07:44:36;;;;;;;;;;;13.50;99.90;;;;;;5046619;28;20082;-93
2023/05/13 07:47:02;;;;;;;;;;;13.70;99.90;;;;;;5042242;28;20040;-92
2023/05/13 07:49:28;;;;;;;;;;;13.90;99.90;;;;;;5037280;28;20353;-91
2023/05/13 07:51:53;;;;;;;;;;;14.20;99.90;;;;;;5041575;28;20049;-91
2023/05/13 07:54:19;;;;;;;;;;;14.40;99.90;;;;;;5050761;28;19916;-92
2023/05/13 07:56:46;;;;;;;;;;;14.70;99.90;;;;;;5032082;28;19948;-93
2023/05/13 07:59:12;;;;;;;;;;;14.70;99.90;;;;;;5026455;28;20345;-92
2023/05/13 08:01:38;;;;;;;;;;;15.20;99.90;;;;;;5031053;28;19916;-94
2023/05/13 08:04:34;;;;;;;;;;;15.60;99.90;;;;;;5042275;28;24058;-93
2023/05/13 08:07:00;;;;;;;;;;;16.10;99.90;;;;;;5025167;28;20361;-92
2023/05/13 08:09:26;;;;;;;;;;;16.50;99.90;;;;;;5034784;28;19952;-92
2023/05/13 08:15:02;;;;;;;;;;;16.80;99.90;;;;;;5037421;28;19909;-92
2023/05/13 08:17:28;;;;;;;;;;;17.30;99.90;;;;;;5029762;28;19909;-92
2023/05/13 08:19:54;;;;;;;;;;;17.70;99.90;;;;;;5036608;28;20411;-93
2023/05/13 08:22:19;;;;;;;;;;;17.90;99.90;;;;;;5035870;28;20241;-93
2023/05/13 08:24:45;;;;;;;;;;;17.70;99.90;;;;;;5035572;28;19931;-93
2023/05/13 08:27:17;;;;;;;;;;;18.00;99.90;;;;;;5042899;28;19905;-93
2023/05/13 08:29:42;;;;;;;;;;;17.90;99.90;;;;;;5037442;28;19909;-92
2023/05/13 08:32:08;;;;;;;;;;;17.60;99.90;;;;;;5042018;28;19984;-92
2023/05/13 08:34:34;;;;;;;;;;;17.40;99.90;;;;;;5031234;28;19913;-92
2023/05/13 08:37:08;;;;;;;;;;;17.30;99.90;;;;;;5035179;28;20249;-91
2023/05/13 08:39:34;;;;;;;;;;;17.20;99.90;;;;;;5042721;28;19909;-92
2023/05/13 08:42:01;;;;;;;;;;;16.80;99.90;;;;;;5056113;28;19936;-92
2023/05/13 08:44:28;;;;;;;;;;;17.00;99.90;;;;;;5041729;28;19916;-90
2023/05/13 08:47:04;;;;;;;;;;;17.20;99.90;;;;;;5026182;28;19917;-91
2023/05/13 08:49:33;;;;;;;;;;;17.20;99.90;;;;;;5043579;28;19916;-92
2023/05/13 08:51:59;;;;;;;;;;;17.10;99.90;;;;;;5035707;28;19916;-91
2023/05/13 08:54:25;;;;;;;;;;;16.70;99.90;;;;;;5034613;28;19916;-91
2023/05/13 08:56:51;;;;;;;;;;;16.60;99.90;;;;;;5031722;28;19909;-92
2023/05/13 08:59:17;;;;;;;;;;;16.90;99.90;;;;;;5021993;28;19909;-91
2023/05/13 09:01:43;;;;;;;;;;;17.10;99.90;;;;;;5038813;28;19916;-91
2023/05/13 09:04:09;;;;;;;;;;;17.20;99.90;;;;;;5036365;28;19905;-92
2023/05/13 09:06:38;;;;;;;;;;;17.60;99.90;;;;;;5031154;28;19916;-94
2023/05/13 09:09:04;;;;;;;;;;;18.10;99.90;;;;;;5039805;28;19909;-92
2023/05/13 09:11:32;;;;;;;;;;;18.50;99.90;;;;;;5021459;28;19909;-91
2023/05/13 09:13:58;;;;;;;;;;;18.80;99.90;;;;;;5035824;28;20506;-92
2023/05/13 09:16:25;;;;;;;;;;;18.70;99.90;;;;;;5021099;28;20040;-91
2023/05/13 09:19:04;;;;;;;;;;;18.50;99.90;;;;;;5038170;28;19909;-92
2023/05/13 09:21:31;;;;;;;;;;;18.20;99.90;;;;;;5024380;28;19909;-92
2023/05/13 09:24:10;;;;;;;;;;;18.30;99.90;;;;;;5037693;28;19910;-92
2023/05/13 09:26:38;;;;;;;;;;;18.60;99.90;;;;;;5023570;28;19913;-92
2023/05/13 09:29:13;;;;;;;;;;;18.50;99.90;;;;;;5039940;28;19915;-91
2023/05/13 09:31:39;;;;;;;;;;;18.40;99.90;;;;;;5018224;28;19916;-92
2023/05/13 09:34:04;;;;;;;;;;;18.50;99.90;;;;;;5036520;28;19905;-92
2023/05/13 09:36:31;;;;;;;;;;;18.40;99.90;;;;;;5042461;28;19933;-89
2023/05/13 09:38:58;;;;;;;;;;;18.20;99.90;;;;;;5034768;28;19909;-91
2023/05/13 09:41:29;;;;;;;;;;;18.10;99.90;;;;;;5050569;28;19909;-92
2023/05/13 09:43:55;;;;;;;;;;;18.20;99.90;;;;;;5032212;28;20336;-92
2023/05/13 09:46:21;;;;;;;;;;;18.00;99.90;;;;;;5031912;28;19913;-92
2023/05/13 09:48:46;;;;;;;;;;;18.20;99.90;;;;;;5055664;28;19961;-90
2023/05/13 09:51:14;;;;;;;;;;;18.10;99.90;;;;;;5047028;28;19901;-91
2023/05/13 09:53:40;;;;;;;;;;;18.20;99.90;;;;;;5039551;28;19905;-92
2023/05/13 09:56:08;;;;;;;;;;;18.10;99.90;;;;;;5056512;28;19971;-92
2023/05/13 09:58:34;;;;;;;;;;;18.10;99.90;;;;;;5017549;28;20007;-92
2023/05/13 10:01:01;;;;;;;;;;;18.30;99.90;;;;;;5022030;28;19916;-92
2023/05/13 10:03:27;;;;;;;;;;;18.30;99.90;;;;;;5009229;28;19909;-93
2023/05/13 10:05:54;;;;;;;;;;;17.90;99.90;;;;;;5037414;28;19909;-93
2023/05/13 10:08:20;;;;;;;;;;;18.20;99.90;;;;;;5024474;28;19920;-92
2023/05/13 10:10:48;;;;;;;;;;;17.90;99.90;;;;;;5036113;28;20035;-92
2023/05/13 10:13:14;;;;;;;;;;;17.80;99.90;;;;;;5036613;28;19909;-91
2023/05/13 10:16:00;;;;;;;;;;;18.20;99.90;;;;;;5029498;28;20276;-93
2023/05/13 10:18:27;;;;;;;;;;;18.50;99.90;;;;;;5043682;28;20370;-92
2023/05/13 10:20:57;;;;;;;;;;;18.80;99.90;;;;;;5029843;28;19909;-92
2023/05/13 10:23:22;;;;;;;;;;;18.40;99.90;;;;;;5033791;28;19923;-92
2023/05/13 10:25:52;;;;;;;;;;;18.20;99.90;;;;;;5033664;28;19984;-93
2023/05/13 10:28:18;;;;;;;;;;;18.40;99.90;;;;;;5025692;28;19913;-91
2023/05/13 10:30:44;;;;;;;;;;;19.00;99.90;;;;;;5031739;28;19952;-92
2023/05/13 10:33:10;;;;;;;;;;;19.50;99.90;;;;;;5031608;28;19912;-92
2023/05/13 10:35:41;;;;;;;;;;;19.10;99.90;;;;;;5032063;28;19941;-92
2023/05/13 10:38:07;;;;;;;;;;;18.90;99.90;;;;;;5049648;28;19962;-93
2023/05/13 10:40:39;;;;;;;;;;;19.00;99.90;;;;;;5036544;28;20358;-93
2023/05/13 10:43:18;;;;;;;;;;;19.40;99.90;;;;;;5013352;28;20284;-94
2023/05/13 10:45:57;;;;;;;;;;;20.10;99.90;;;;;;5033395;28;19916;-92
2023/05/13 10:48:23;;;;;;;;;;;20.20;99.90;;;;;;5045133;28;20008;-92
2023/05/13 10:50:52;;;;;;;;;;;20.70;99.90;;;;;;5027373;28;19975;-92
2023/05/13 10:53:20;;;;;;;;;;;21.10;99.90;;;;;;5025734;28;20389;-93
2023/05/13 10:55:51;;;;;;;;;;;21.00;99.90;;;;;;5026251;28;19913;-91
2023/05/13 10:58:16;;;;;;;;;;;20.90;99.90;;;;;;5016278;28;19917;-91
2023/05/13 11:00:44;;;;;;;;;;;20.80;99.60;;;;;;5031995;28;19909;-91
2023/05/13 11:03:10;;;;;;;;;;;20.00;99.80;;;;;;5031195;28;19913;-93
2023/05/13 11:05:43;;;;;;;;;;;19.60;99.90;;;;;;5032428;28;19913;-93
2023/05/13 11:08:09;;;;;;;;;;;19.30;99.90;;;;;;5031236;28;20012;-92
2023/05/13 11:10:35;;;;;;;;;;;18.60;99.90;;;;;;5019815;28;19963;-92
2023/05/13 11:13:10;;;;;;;;;;;18.30;99.90;;;;;;5036165;28;19913;-91
2023/05/13 11:15:50;;;;;;;;;;;17.70;99.90;;;;;;5027482;28;19913;-92
2023/05/13 11:18:27;;;;;;;;;;;17.40;99.90;;;;;;5015866;28;19920;-91
2023/05/13 11:20:53;;;;;;;;;;;17.60;99.90;;;;;;5036402;28;19980;-92
2023/05/13 11:23:19;;;;;;;;;;;18.30;99.90;;;;;;5019353;28;19932;-90
2023/05/13 11:25:45;;;;;;;;;;;18.60;99.90;;;;;;5033089;28;19916;-91
2023/05/13 11:28:39;;;;;;;;;;;18.90;99.90;;;;;;5015829;28;19913;-92
2023/05/13 11:31:15;;;;;;;;;;;19.00;99.90;;;;;;5033904;28;19948;-91
2023/05/13 11:34:17;;;;;;;;;;;19.20;99.90;;;;;;5032650;28;20450;-92
2023/05/13 11:36:48;;;;;;;;;;;19.60;99.90;;;;;;4985542;28;19984;-93
2023/05/13 11:39:21;;;;;;;;;;;20.20;99.90;;;;;;5043513;28;20349;-92
2023/05/13 11:41:50;;;;;;;;;;;20.00;99.90;;;;;;5014660;28;20010;-91
2023/05/13 11:44:20;;;;;;;;;;;19.60;99.90;;;;;;5039370;28;20383;-93
2023/05/13 11:46:49;;;;;;;;;;;19.10;99.90;;;;;;5033366;28;20353;-92
2023/05/13 11:55:47;;;;;;;;;;;20.20;99.90;;;;;;5041641;28;19955;-92
2023/05/13 11:58:14;;;;;;;;;;;20.50;99.90;;;;;;5023819;28;20315;-92
2023/05/13 12:00:40;;;;;;;;;;;20.20;99.90;;;;;;5008984;28;19905;-91
2023/05/13 12:03:10;;;;;;;;;;;19.90;99.90;;;;;;5049700;28;19968;-92
2023/05/13 12:05:36;;;;;;;;;;;20.20;99.90;;;;;;5024094;28;19913;-92
2023/05/13 12:08:05;;;;;;;;;;;20.30;99.90;;;;;;5007367;28;19909;-91
2023/05/13 12:10:38;;;;;;;;;;;20.10;99.90;;;;;;5023410;28;19909;-92
2023/05/13 12:13:06;;;;;;;;;;;20.20;99.90;;;;;;5032201;28;19921;-92
2023/05/13 12:15:32;;;;;;;;;;;20.20;99.90;;;;;;5035286;28;19913;-91
2023/05/13 12:17:58;;;;;;;;;;;19.80;99.90;;;;;;5035719;28;19992;-92
2023/05/13 12:20:26;;;;;;;;;;;19.50;99.90;;;;;;5035817;28;19910;-91
2023/05/13 12:22:55;;;;;;;;;;;19.30;99.90;;;;;;5025130;28;19909;-91
2023/05/13 12:25:41;;;;;;;;;;;19.60;99.90;;;;;;5026787;28;20008;-91
2023/05/13 12:28:08;;;;;;;;;;;20.20;99.90;;;;;;5021321;28;19915;-91
2023/05/13 12:30:47;;;;;;;;;;;20.60;99.90;;;;;;5002581;28;19916;-89
2023/05/13 12:36:32;;;;;;;;;;;20.20;99.90;;;;;;5027077;28;19913;-90
2023/05/13 12:42:33;;;;;;;;;;;19.10;99.90;;;;;;5032764;28;19913;-91
2023/05/13 12:45:08;;;;;;;;;;;19.10;99.90;;;;;;5024763;28;19913;-90
2023/05/13 12:47:57;;;;;;;;;;;19.20;99.90;;;;;;5037164;28;19913;-91
2023/05/13 12:50:26;;;;;;;;;;;19.40;99.90;;;;;;5038159;28;19979;-92
2023/05/13 12:52:52;;;;;;;;;;;19.50;99.90;;;;;;5030795;28;19948;-91
2023/05/13 12:55:18;;;;;;;;;;;19.80;99.90;;;;;;5035935;28;19913;-90
2023/05/13 12:57:57;;;;;;;;;;;19.40;99.90;;;;;;5031413;28;19914;-90
2023/05/13 13:00:24;;;;;;;;;;;18.80;99.90;;;;;;5017264;28;19932;-91
2023/05/13 13:02:50;;;;;;;;;;;17.90;99.90;;;;;;5026423;28;19932;-89
2023/05/13 13:05:22;;;;;;;;;;;17.50;99.90;;;;;;5033245;28;20004;-89
2023/05/13 13:07:59;;;;;;;;;;;17.40;99.90;;;;;;5024790;28;19967;-89
2023/05/13 13:10:25;;;;;;;;;;;17.30;99.90;;;;;;5034049;28;19960;-92
2023/05/13 13:12:51;;;;;;;;;;;17.90;99.90;;;;;;5025588;28;19909;-92
2023/05/13 13:15:19;;;;;;;;;;;18.10;99.90;;;;;;5036375;28;19951;-92
2023/05/13 13:17:55;;;;;;;;;;;18.20;99.90;;;;;;5028805;28;20008;-91
2023/05/13 13:20:29;;;;;;;;;;;18.50;99.90;;;;;;5037137;28;19948;-91
2023/05/13 13:22:55;;;;;;;;;;;18.50;99.90;;;;;;5037781;28;19943;-91
2023/05/13 13:25:20;;;;;;;;;;;18.10;99.90;;;;;;5029678;28;19910;-92
2023/05/13 13:27:47;;;;;;;;;;;18.50;99.90;;;;;;5037908;28;19913;-92
2023/05/13 13:30:34;;;;;;;;;;;18.80;99.90;;;;;;5028159;28;20012;-91
2023/05/13 13:32:59;;;;;;;;;;;19.70;99.90;;;;;;5026217;28;19920;-91
2023/05/13 13:35:37;;;;;;;;;;;20.20;99.90;;;;;;5036397;28;19918;-92
2023/05/13 13:38:02;;;;;;;;;;;19.90;99.90;;;;;;5023970;28;19915;-91
2023/05/13 13:40:31;;;;;;;;;;;20.00;99.90;;;;;;5019659;28;19905;-91
2023/05/13 13:43:19;;;;;;;;;;;20.80;99.90;;;;;;5040803;28;19917;-91
2023/05/13 13:45:58;;;;;;;;;;;20.20;99.90;;;;;;5037552;28;19915;-91
2023/05/13 13:51:53;;;;;;;;;;;19.90;99.90;;;;;;5038860;28;19996;-91
2023/05/13 13:54:19;;;;;;;;;;;19.80;99.90;;;;;;5039522;28;19933;-91
2023/05/13 13:56:45;;;;;;;;;;;19.20;99.90;;;;;;5019958;28;19909;-92
2023/05/13 13:59:13;;;;;;;;;;;19.70;99.90;;;;;;5035709;28;19963;-92
2023/05/13 14:01:41;;;;;;;;;;;19.80;99.90;;;;;;5022011;28;19916;-90
2023/05/13 14:04:40;;;;;;;;;;;19.90;99.90;;;;;;5019365;28;20593;-91
2023/05/13 14:07:06;;;;;;;;;;;19.80;99.90;;;;;;5016761;28;19920;-92
2023/05/13 14:09:34;;;;;;;;;;;20.00;99.90;;;;;;5026906;28;19914;-91
2023/05/13 14:12:00;;;;;;;;;;;19.80;99.90;;;;;;5008328;28;20284;-92
2023/05/13 14:14:25;;;;;;;;;;;20.10;99.90;;;;;;5038685;28;19909;-93
2023/05/13 14:16:53;;;;;;;;;;;20.40;99.90;;;;;;5018151;28;19913;-92
2023/05/13 14:19:21;;;;;;;;;;;20.20;99.90;;;;;;5037626;28;19913;-92
2023/05/13 14:21:47;;;;;;;;;;;19.60;99.90;;;;;;5032885;28;19904;-92
2023/05/13 14:24:13;;;;;;;;;;;18.70;99.90;;;;;;5034677;28;20427;-92
2023/05/13 14:26:38;;;;;;;;;;;18.30;99.90;;;;;;5046585;28;19909;-92
2023/05/13 14:29:04;;;;;;;;;;;18.20;99.90;;;;;;5018226;28;20003;-92
2023/05/13 14:31:29;;;;;;;;;;;18.70;99.90;;;;;;5029058;28;19971;-92
2023/05/13 14:34:07;;;;;;;;;;;19.20;99.90;;;;;;5030992;28;20357;-92
2023/05/13 14:36:43;;;;;;;;;;;19.10;99.90;;;;;;5041894;28;19909;-92
2023/05/13 14:39:21;;;;;;;;;;;;;;;;;;;;;
2023/05/13 14:42:12;;;;;;;;;;;18.20;99.90;;;;;;5039060;28;19959;-91
2023/05/13 14:44:50;;;;;;;;;;;18.10;99.90;;;;;;5041032;28;20016;-89
2023/05/13 14:50:45;;;;;;;;;;;18.60;99.90;;;;;;5030969;28;19934;-91
2023/05/13 14:53:10;;;;;;;;;;;19.10;99.90;;;;;;5038150;28;19917;-92
2023/05/13 14:55:36;;;;;;;;;;;19.30;99.90;;;;;;5036704;28;20269;-90
2023/05/13 14:58:02;;;;;;;;;;;19.20;99.90;;;;;;5034240;28;19984;-91
2023/05/13 15:00:28;;;;;;;;;;;19.00;99.90;;;;;;5034368;28;20513;-91
2023/05/13 15:02:54;;;;;;;;;;;18.40;99.90;;;;;;5023623;28;19940;-89
2023/05/13 15:05:19;;;;;;;;;;;17.80;99.90;;;;;;5026560;28;19909;-91
2023/05/13 15:07:45;;;;;;;;;;;17.90;99.90;;;;;;5035782;28;19947;-92